createdAt,value
2022-12-12T00:02:30.225Z,-0.81
2022-12-12T00:07:31.911Z,-0.79
2022-12-12T00:12:33.463Z,-0.75
2022-12-12T00:17:36.238Z,-0.71
2022-12-12T00:22:37.750Z,-0.67
2022-12-12T00:27:39.258Z,-0.66
2022-12-12T00:32:40.735Z,-0.65
2022-12-12T00:37:42.204Z,-0.63
2022-12-12T00:42:43.596Z,-0.60
2022-12-12T00:47:44.990Z,-0.58
2022-12-12T00:52:46.390Z,-0.58
2022-12-12T00:57:47.863Z,-0.57
2022-12-12T01:02:50.340Z,-0.55
2022-12-12T01:07:52.378Z,-0.49
2022-12-12T01:12:53.850Z,-0.40
2022-12-12T01:17:55.328Z,-0.32
2022-12-12T01:22:56.841Z,-0.25
2022-12-12T01:27:59.331Z,-0.19
2022-12-12T01:33:00.831Z,-0.14
2022-12-12T01:38:02.273Z,-0.11
2022-12-12T01:43:10.208Z,-0.07
2022-12-12T01:48:14.069Z,-0.06
2022-12-12T01:53:18.651Z,-0.04
2022-12-12T01:58:20.291Z,-0.03
2022-12-12T02:03:22.602Z,-0.06
2022-12-12T02:08:25.424Z,-0.06
2022-12-12T02:13:30.696Z,-0.07
2022-12-12T02:18:56.984Z,-0.07
2022-12-12T02:24:20.420Z,-0.08
2022-12-12T02:30:02.211Z,-0.12
2022-12-12T02:35:20.181Z,-0.11
2022-12-12T02:40:24.646Z,-0.08
2022-12-12T02:45:38.461Z,-0.05
2022-12-12T02:50:41.940Z,-0.07
2022-12-12T02:55:43.389Z,-0.11
2022-12-12T03:01:11.083Z,-0.13
2022-12-12T03:07:05.188Z,-0.17
2022-12-12T03:12:51.877Z,-0.24
2022-12-12T03:18:19.593Z,-0.25
2022-12-12T03:23:27.600Z,-0.19
2022-12-12T03:28:34.767Z,-0.16
2022-12-12T03:33:51.409Z,-0.14
2022-12-12T03:38:58.420Z,-0.12
2022-12-12T03:44:11.299Z,-0.09
2022-12-12T03:49:29.654Z,-0.06
2022-12-12T03:54:39.692Z,0.00
2022-12-12T03:59:53.150Z,0.02
2022-12-12T04:05:20.233Z,0.04
2022-12-12T04:10:43.742Z,0.04
2022-12-12T04:15:51.805Z,0.02
2022-12-12T04:21:18.173Z,0.02
2022-12-12T04:26:41.573Z,0.02
2022-12-12T04:31:58.770Z,0.04
2022-12-12T04:37:03.641Z,0.05
2022-12-12T04:42:08.005Z,0.04
2022-12-12T04:47:11.229Z,0.06
2022-12-12T04:52:13.848Z,0.03
2022-12-12T04:57:27.785Z,0.05
2022-12-12T05:02:39.413Z,0.08
2022-12-12T05:07:44.217Z,0.08
2022-12-12T05:12:48.737Z,0.07
2022-12-12T05:18:01.259Z,0.08
2022-12-12T05:23:02.811Z,0.07
2022-12-12T05:28:04.648Z,0.04
2022-12-12T05:33:06.178Z,0.04
2022-12-12T05:38:07.665Z,0.01
2022-12-12T05:43:09.239Z,-0.03
2022-12-12T05:48:10.894Z,-0.06
2022-12-12T05:53:12.360Z,-0.11
2022-12-12T05:58:13.808Z,-0.11
2022-12-12T06:03:15.797Z,-0.11
2022-12-12T06:08:20.903Z,-0.14
2022-12-12T06:13:23.653Z,-0.16
2022-12-12T06:18:25.453Z,-0.15
2022-12-12T06:23:26.989Z,-0.14
2022-12-12T06:28:28.515Z,-0.13
2022-12-12T06:33:32.042Z,-0.15
2022-12-12T06:38:34.710Z,-0.13
2022-12-12T06:43:36.321Z,-0.13
2022-12-12T06:48:37.831Z,-0.15
2022-12-12T06:53:39.306Z,-0.21
2022-12-12T06:58:40.861Z,-0.27
2022-12-12T07:03:42.334Z,-0.27
2022-12-12T07:08:43.925Z,-0.23
2022-12-12T07:13:45.896Z,-0.22
2022-12-12T07:18:47.478Z,-0.18
2022-12-12T07:23:49.053Z,-0.18
2022-12-12T07:28:51.518Z,-0.18
2022-12-12T07:33:54.464Z,-0.20
2022-12-12T07:38:55.897Z,-0.21
2022-12-12T07:43:57.339Z,-0.19
2022-12-12T07:48:58.837Z,-0.15
2022-12-12T07:54:00.614Z,-0.09
2022-12-12T07:59:02.146Z,-0.07
2022-12-12T08:04:06.986Z,-0.07
2022-12-12T08:09:08.536Z,-0.07
2022-12-12T08:14:13.067Z,-0.01
2022-12-12T08:19:15.594Z,0.06
2022-12-12T08:24:18.104Z,0.05
2022-12-12T08:29:19.619Z,0.07
2022-12-12T08:34:21.117Z,0.05
2022-12-12T08:39:22.667Z,0.06
2022-12-12T08:44:24.121Z,0.11
2022-12-12T08:49:25.675Z,0.19
2022-12-12T08:54:27.999Z,0.21
2022-12-12T08:59:30.001Z,0.22
2022-12-12T09:04:31.848Z,0.19
2022-12-12T09:09:33.323Z,0.18
2022-12-12T09:14:34.801Z,0.21
2022-12-12T09:19:36.261Z,0.20
2022-12-12T09:24:37.814Z,0.21
2022-12-12T09:29:40.047Z,0.28
2022-12-12T09:34:41.614Z,0.37
2022-12-12T09:39:43.509Z,0.41
2022-12-12T09:44:45.386Z,0.46
2022-12-12T09:49:51.316Z,0.50
2022-12-12T09:54:52.859Z,0.45
2022-12-12T10:00:10.447Z,0.35
2022-12-12T10:05:41.215Z,0.33
2022-12-12T10:10:45.908Z,0.31
2022-12-12T10:16:03.230Z,0.27
2022-12-12T10:21:13.818Z,0.32
2022-12-12T10:26:22.060Z,0.35
2022-12-12T10:31:47.304Z,0.37
2022-12-12T10:36:55.225Z,0.31
2022-12-12T10:42:05.954Z,0.28
2022-12-12T10:47:10.648Z,0.25
2022-12-12T10:52:18.489Z,0.29
2022-12-12T10:57:26.040Z,0.34
2022-12-12T11:02:42.340Z,0.43
2022-12-12T11:07:50.303Z,0.43
2022-12-12T11:12:56.995Z,0.37
2022-12-12T11:18:02.739Z,0.39
2022-12-12T11:23:18.611Z,0.37
2022-12-12T11:28:24.118Z,0.46
2022-12-12T11:33:35.290Z,0.48
2022-12-12T11:38:41.673Z,0.46
2022-12-12T11:43:49.185Z,0.40
2022-12-12T11:48:53.786Z,0.51
2022-12-12T11:53:56.928Z,0.60
2022-12-12T11:59:10.625Z,0.71
2022-12-12T12:04:40.566Z,0.80
2022-12-12T12:09:54.253Z,0.85
2022-12-12T12:15:07.139Z,0.90
2022-12-12T12:20:26.153Z,0.98
2022-12-12T12:25:30.594Z,1.03
2022-12-12T12:30:50.679Z,1.05
2022-12-12T12:36:07.640Z,1.09
2022-12-12T12:41:45.981Z,1.11
2022-12-12T12:47:08.675Z,1.10
2022-12-12T12:52:17.226Z,1.06
2022-12-12T12:57:28.233Z,1.08
2022-12-12T13:02:51.734Z,1.09
2022-12-12T13:07:57.484Z,1.09
2022-12-12T13:13:29.611Z,1.06
2022-12-12T13:18:44.500Z,1.01
2022-12-12T13:24:12.648Z,0.91
2022-12-12T13:29:35.219Z,0.82
2022-12-12T13:34:40.521Z,0.71
2022-12-12T13:39:42.249Z,0.68
2022-12-12T13:44:47.167Z,0.62
2022-12-12T13:50:09.939Z,0.57
2022-12-12T13:55:11.371Z,0.53
2022-12-12T14:00:17.810Z,0.48
2022-12-12T14:05:41.902Z,0.42
2022-12-12T14:10:49.500Z,0.37
2022-12-12T14:15:57.174Z,0.36
2022-12-12T14:21:05.624Z,0.29
2022-12-12T14:26:29.454Z,0.23
2022-12-12T14:31:37.787Z,0.19
2022-12-12T14:36:55.959Z,0.18
2022-12-12T14:41:58.234Z,0.13
2022-12-12T14:47:07.470Z,0.04
2022-12-12T14:52:16.961Z,-0.05
2022-12-12T14:57:22.888Z,0.01
2022-12-12T15:02:38.694Z,-0.04
2022-12-12T15:07:40.400Z,-0.19
2022-12-12T15:12:44.291Z,-0.37
2022-12-12T15:17:49.534Z,-0.55
2022-12-12T15:22:57.747Z,-0.78
2022-12-12T15:28:01.219Z,-0.94
2022-12-12T15:33:05.771Z,-1.06
2022-12-12T15:38:12.697Z,-1.17
2022-12-12T15:43:18.647Z,-1.27
2022-12-12T15:48:23.114Z,-1.27
2022-12-12T15:53:31.792Z,-1.24
2022-12-12T15:58:36.806Z,-1.19
2022-12-12T16:04:03.942Z,-1.23
2022-12-12T16:09:11.515Z,-1.16
2022-12-12T16:14:40.091Z,-1.06
2022-12-12T16:19:44.635Z,-1.03
2022-12-12T16:24:52.579Z,-1.04
2022-12-12T16:29:54.022Z,-1.03
2022-12-12T16:34:55.547Z,-1.02
2022-12-12T16:39:56.971Z,-0.93
2022-12-12T16:44:58.363Z,-0.88
2022-12-12T16:49:59.751Z,-0.83
2022-12-12T16:55:01.733Z,-0.81
2022-12-12T17:00:04.470Z,-0.81
2022-12-12T17:05:06.530Z,-0.84
2022-12-12T17:10:09.415Z,-0.87
2022-12-12T17:15:19.667Z,-1.01
2022-12-12T17:20:21.663Z,-1.03
2022-12-12T17:25:23.624Z,-1.06
2022-12-12T17:30:25.228Z,-1.15
2022-12-12T17:35:26.691Z,-1.19
2022-12-12T17:40:28.162Z,-1.20
2022-12-12T17:45:30.620Z,-1.30
2022-12-12T17:50:34.922Z,-1.38
2022-12-12T17:55:54.971Z,-1.41
2022-12-12T18:01:15.387Z,-1.34
2022-12-12T18:06:18.292Z,-1.31
2022-12-12T18:11:26.790Z,-1.25
2022-12-12T18:16:30.568Z,-1.17
2022-12-12T18:21:59.840Z,-1.08
2022-12-12T18:26:56.354Z,-0.89
2022-12-12T18:31:58.096Z,-0.79
2022-12-12T18:36:59.742Z,-0.71
2022-12-12T18:42:01.158Z,-0.60
2022-12-12T18:47:02.767Z,-0.55
2022-12-12T18:52:04.542Z,-0.54
2022-12-12T18:57:05.977Z,-0.52
2022-12-12T19:02:13.641Z,-0.38
2022-12-12T19:07:18.378Z,-0.36
2022-12-12T19:12:20.408Z,-0.31
2022-12-12T19:17:26.237Z,-0.23
2022-12-12T19:27:49.599Z,-0.12
2022-12-12T19:32:51.029Z,-0.04
2022-12-12T19:37:52.525Z,0.04
2022-12-12T19:42:53.959Z,0.15
2022-12-12T19:47:55.417Z,0.20
2022-12-12T19:52:58.233Z,0.22
2022-12-12T20:23:12.224Z,0.14
2022-12-12T20:35:29.540Z,0.01
2022-12-12T20:42:01.584Z,-0.02
2022-12-12T21:00:17.483Z,-0.03
2022-12-12T21:13:33.196Z,0.02
2022-12-12T21:20:04.636Z,0.00
2022-12-12T22:12:33.401Z,0.14
2022-12-12T22:19:05.976Z,0.15
2022-12-12T22:26:24.551Z,0.09
2022-12-12T22:31:52.298Z,-0.04
2022-12-12T22:36:54.028Z,-0.06
2022-12-12T22:41:56.155Z,-0.08
2022-12-12T22:46:57.679Z,-0.08
2022-12-12T22:51:59.714Z,-0.04
2022-12-12T22:57:01.170Z,-0.02
2022-12-12T23:02:02.584Z,-0.03
2022-12-12T23:07:04.136Z,-0.11
2022-12-12T23:12:05.778Z,-0.16
2022-12-12T23:17:07.249Z,-0.17
2022-12-12T23:22:08.868Z,-0.21
2022-12-12T23:27:10.304Z,-0.29
2022-12-12T23:32:11.805Z,-0.36
2022-12-12T23:37:13.435Z,-0.43
2022-12-12T23:42:15.590Z,-0.53
2022-12-12T23:47:17.026Z,-0.63
2022-12-12T23:52:18.445Z,-0.71
2022-12-12T23:57:20.658Z,-0.64
